createdAt,value
2023-04-18T00:03:49.113Z,16.55
2023-04-18T00:08:50.016Z,16.35
2023-04-18T00:13:51.928Z,16.73
2023-04-18T00:18:53.437Z,19.75
2023-04-18T00:23:54.064Z,19.55
2023-04-18T00:28:55.987Z,20.42
2023-04-18T00:33:56.570Z,21.08
2023-04-18T00:38:57.732Z,22.05
2023-04-18T00:43:59.620Z,21.67
2023-04-18T00:49:00.308Z,24.33
2023-04-18T00:54:01.076Z,22.50
2023-04-18T00:59:03.811Z,24.77
2023-04-18T01:04:04.817Z,24.33
2023-04-18T01:09:06.619Z,23.77
2023-04-18T01:14:09.282Z,23.20
2023-04-18T01:19:09.890Z,24.83
2023-04-18T01:24:13.716Z,25.63
2023-04-18T01:29:15.686Z,26.30
2023-04-18T01:34:17.751Z,30.25
2023-04-18T01:39:19.702Z,27.98
2023-04-18T01:44:20.415Z,28.67
2023-04-18T01:49:21.029Z,28.38
2023-04-18T01:54:24.712Z,28.38
2023-04-18T01:59:26.504Z,27.85
2023-04-18T02:04:27.154Z,29.25
2023-04-18T02:09:29.162Z,29.33
2023-04-18T02:14:32.774Z,28.55
2023-04-18T02:19:34.501Z,29.20
2023-04-18T02:24:36.378Z,31.05
2023-04-18T02:29:36.953Z,29.13
2023-04-18T02:34:38.141Z,27.90
2023-04-18T02:39:40.069Z,28.02
2023-04-18T02:44:40.697Z,26.90
2023-04-18T02:49:41.292Z,27.55
2023-04-18T02:54:43.219Z,26.92
2023-04-18T02:59:51.754Z,27.08
2023-04-18T03:05:10.806Z,25.45
2023-04-18T03:10:15.189Z,25.65
2023-04-18T03:15:16.266Z,24.27
2023-04-18T03:20:17.589Z,24.67
2023-04-18T03:25:19.648Z,22.70
2023-04-18T03:30:25.262Z,22.10
2023-04-18T03:35:28.380Z,22.20
2023-04-18T03:40:30.973Z,22.80
2023-04-18T03:45:38.395Z,23.33
2023-04-18T03:50:39.237Z,23.90
2023-04-18T03:55:44.744Z,25.20
2023-04-18T04:00:48.298Z,26.23
2023-04-18T04:05:49.555Z,26.17
2023-04-18T04:10:51.677Z,27.73
2023-04-18T04:15:53.118Z,28.83
2023-04-18T04:20:53.886Z,26.73
2023-04-18T04:26:09.374Z,27.15
2023-04-18T04:31:22.211Z,28.08
2023-04-18T04:36:27.207Z,28.83
2023-04-18T04:41:31.651Z,26.75
2023-04-18T04:46:33.884Z,27.58
2023-04-18T04:51:38.506Z,26.25
2023-04-18T04:56:41.329Z,27.73
2023-04-18T05:01:42.056Z,26.55
2023-04-18T05:06:42.719Z,26.50
2023-04-18T05:11:44.622Z,26.33
2023-04-18T05:16:45.393Z,26.98
2023-04-18T05:21:46.020Z,26.88
2023-04-18T05:26:47.962Z,25.95
2023-04-18T05:31:48.542Z,25.63
2023-04-18T05:36:49.129Z,25.48
2023-04-18T05:41:51.110Z,25.02
2023-04-18T05:46:52.247Z,23.67
2023-04-18T05:51:53.002Z,23.20
2023-04-18T05:56:56.987Z,23.70
2023-04-18T06:01:57.851Z,22.17
2023-04-18T06:06:58.492Z,21.88
2023-04-18T06:12:01.481Z,19.92
2023-04-18T06:17:02.112Z,18.10
2023-04-18T06:22:02.783Z,22.23
2023-04-18T06:27:05.901Z,20.63
2023-04-18T06:32:07.119Z,21.50
2023-04-18T06:37:07.811Z,22.95
2023-04-18T06:42:09.740Z,23.92
2023-04-18T06:47:18.372Z,21.65
2023-04-18T06:52:19.005Z,22.23
2023-04-18T06:57:21.200Z,22.20
2023-04-18T07:02:21.907Z,21.67
2023-04-18T07:07:22.596Z,22.52
2023-04-18T07:12:24.542Z,21.42
2023-04-18T07:17:25.374Z,21.65
2023-04-18T07:22:26.126Z,21.65
2023-04-18T07:27:28.113Z,19.65
2023-04-18T07:32:28.727Z,21.23
2023-04-18T07:37:32.424Z,20.55
2023-04-18T07:42:34.337Z,21.35
2023-04-18T07:47:34.928Z,20.48
2023-04-18T07:52:37.361Z,19.85
2023-04-18T07:57:40.127Z,22.10
2023-04-18T08:02:41.733Z,19.65
2023-04-18T08:07:42.526Z,19.35
2023-04-18T08:12:44.825Z,18.95
2023-04-18T08:17:48.908Z,20.98
2023-04-18T08:23:04.855Z,18.88
2023-04-18T08:28:09.922Z,17.63
2023-04-18T08:33:10.713Z,19.77
2023-04-18T08:38:11.335Z,16.75
2023-04-18T08:43:15.094Z,18.20
2023-04-18T08:48:16.283Z,18.30
2023-04-18T08:53:18.485Z,18.30
2023-04-18T08:58:23.662Z,18.35
2023-04-18T09:03:39.498Z,16.58
2023-04-18T09:08:42.526Z,17.30
2023-04-18T09:13:47.145Z,16.10
2023-04-18T09:19:10.386Z,17.73
2023-04-18T09:24:21.071Z,17.73
2023-04-18T09:29:24.065Z,19.08
2023-04-18T09:34:26.355Z,17.45
2023-04-18T09:39:28.461Z,17.80
2023-04-18T09:44:30.360Z,20.15
2023-04-18T09:49:31.092Z,20.63
2023-04-18T09:54:34.016Z,20.98
2023-04-18T09:59:42.540Z,21.67
2023-04-18T10:04:44.845Z,20.88
2023-04-18T10:09:47.952Z,21.42
2023-04-18T10:14:50.390Z,22.38
2023-04-18T10:20:05.620Z,19.63
2023-04-18T10:25:07.359Z,21.38
2023-04-18T10:30:10.985Z,19.92
2023-04-18T10:35:11.842Z,19.13
2023-04-18T10:40:12.853Z,21.67
2023-04-18T10:45:22.200Z,20.42
2023-04-18T10:50:23.078Z,20.15
2023-04-18T10:55:27.453Z,20.42
2023-04-18T11:00:30.715Z,21.38
2023-04-18T11:05:31.466Z,24.13
2023-04-18T11:10:32.060Z,23.27
2023-04-18T11:15:40.205Z,22.88
2023-04-18T11:20:47.626Z,22.65
2023-04-18T11:25:51.379Z,22.95
2023-04-18T11:30:53.316Z,21.50
2023-04-18T11:35:58.354Z,23.27
2023-04-18T11:40:59.012Z,23.63
2023-04-18T11:46:01.802Z,23.33
2023-04-18T11:51:02.539Z,23.17
2023-04-18T11:56:03.932Z,21.67
2023-04-18T12:01:18.842Z,21.88
2023-04-18T12:06:19.656Z,23.35
2023-04-18T12:11:21.345Z,24.27
2023-04-18T12:16:28.205Z,24.30
2023-04-18T12:21:29.544Z,23.83
2023-04-18T12:26:30.207Z,22.85
2023-04-18T12:31:33.366Z,23.42
2023-04-18T12:36:34.042Z,22.70
2023-04-18T12:41:34.649Z,21.13
2023-04-18T12:46:36.676Z,23.30
2023-04-18T12:51:37.279Z,22.67
2023-04-18T12:56:37.922Z,22.80
2023-04-18T13:01:39.804Z,22.48
2023-04-18T13:06:40.454Z,18.55
2023-04-18T13:11:41.126Z,19.98
2023-04-18T13:16:44.017Z,18.35
2023-04-18T13:21:46.447Z,19.63
2023-04-18T13:26:47.913Z,20.05
2023-04-18T13:31:49.828Z,19.30
2023-04-18T13:36:50.499Z,18.23
2023-04-18T13:41:51.426Z,18.73
2023-04-18T13:46:53.997Z,17.25
2023-04-18T13:51:57.202Z,16.75
2023-04-18T13:56:59.678Z,15.10
2023-04-18T14:02:01.876Z,17.23
2023-04-18T14:07:03.765Z,15.85
2023-04-18T14:12:04.690Z,16.70
2023-04-18T14:17:06.704Z,15.13
2023-04-18T14:22:07.837Z,15.75
2023-04-18T14:27:08.438Z,14.48
2023-04-18T14:32:10.577Z,14.50
2023-04-18T14:37:13.856Z,15.18
2023-04-18T14:42:17.053Z,13.85
2023-04-18T14:47:18.974Z,13.77
2023-04-18T14:52:19.556Z,12.68
2023-04-18T14:57:20.117Z,13.68
2023-04-18T15:02:22.441Z,13.38
2023-04-18T15:07:23.114Z,12.13
2023-04-18T15:12:23.717Z,12.43
2023-04-18T15:17:25.857Z,12.85
2023-04-18T15:22:26.429Z,13.35
2023-04-18T15:27:27.042Z,12.68
2023-04-18T15:32:28.986Z,14.00
2023-04-18T15:37:29.591Z,13.82
2023-04-18T15:42:30.996Z,13.23
2023-04-18T15:47:34.209Z,13.88
2023-04-18T15:52:34.906Z,15.60
2023-04-18T15:57:35.623Z,16.42
2023-04-18T16:02:37.592Z,15.20
2023-04-18T16:07:38.519Z,17.92
2023-04-18T16:12:39.885Z,16.33
2023-04-18T16:17:42.151Z,16.70
2023-04-18T16:22:42.768Z,17.67
2023-04-18T16:27:44.316Z,18.75
2023-04-18T16:32:46.325Z,17.70
2023-04-18T16:37:47.241Z,18.45
2023-04-18T16:42:48.013Z,17.88
2023-04-18T16:47:49.982Z,17.83
2023-04-18T16:52:50.651Z,17.48
2023-04-18T16:57:51.576Z,18.70
2023-04-18T17:02:55.661Z,18.80
2023-04-18T17:07:56.352Z,17.55
2023-04-18T17:12:57.001Z,17.77
2023-04-18T17:18:01.048Z,17.75
2023-04-18T17:23:01.708Z,16.30
2023-04-18T17:28:03.379Z,16.90
2023-04-18T17:33:05.579Z,16.30
2023-04-18T17:38:06.344Z,18.33
2023-04-18T17:43:06.991Z,17.58
2023-04-18T17:48:09.055Z,16.52
2023-04-18T17:53:09.679Z,17.67
2023-04-18T17:58:10.452Z,17.45
2023-04-18T18:03:14.478Z,16.98
2023-04-18T18:08:15.330Z,16.15
2023-04-18T18:13:16.052Z,17.52
2023-04-18T18:18:18.261Z,16.80
2023-04-18T18:23:18.915Z,15.65
2023-04-18T18:28:19.566Z,15.70
2023-04-18T18:33:21.556Z,15.57
2023-04-18T18:38:22.268Z,16.98
2023-04-18T18:43:26.169Z,17.13
2023-04-18T18:48:29.399Z,18.60
2023-04-18T18:53:30.293Z,16.98
2023-04-18T18:58:31.180Z,15.98
2023-04-18T19:03:34.701Z,18.48
2023-04-18T19:08:36.097Z,17.27
2023-04-18T19:13:36.685Z,16.25
2023-04-18T19:18:38.622Z,18.42
2023-04-18T19:23:39.271Z,17.60
2023-04-18T19:28:39.941Z,19.05
2023-04-18T19:33:42.053Z,17.77
2023-04-18T19:38:42.785Z,18.73
2023-04-18T19:43:43.410Z,19.73
2023-04-18T19:48:45.308Z,17.98
2023-04-18T19:53:45.886Z,18.77
2023-04-18T19:58:46.791Z,17.75
2023-04-18T20:03:49.082Z,18.77
2023-04-18T20:08:49.896Z,18.67
2023-04-18T20:13:52.135Z,18.58
2023-04-18T20:18:55.197Z,17.33
2023-04-18T20:23:56.623Z,16.83
2023-04-18T20:28:57.254Z,17.67
2023-04-18T20:33:59.228Z,19.27
2023-04-18T20:39:02.212Z,18.88
2023-04-18T20:44:05.167Z,17.65
2023-04-18T20:49:07.691Z,18.17
2023-04-18T20:54:08.282Z,18.60
2023-04-18T20:59:09.053Z,18.27
2023-04-18T21:04:11.125Z,17.55
2023-04-18T21:09:11.909Z,18.83
2023-04-18T21:14:12.820Z,20.33
2023-04-18T21:19:15.159Z,19.90
2023-04-18T21:24:15.999Z,19.10
2023-04-18T21:29:16.706Z,19.15
2023-04-18T21:34:18.646Z,20.70
2023-04-18T21:39:19.286Z,18.92
2023-04-18T21:44:19.912Z,18.55
2023-04-18T21:49:21.794Z,19.50
2023-04-18T21:54:22.390Z,20.25
2023-04-18T21:59:23.007Z,19.77
2023-04-18T22:04:26.328Z,19.95
2023-04-18T22:09:27.404Z,19.85
2023-04-18T22:14:28.152Z,19.15
2023-04-18T22:19:31.313Z,18.42
2023-04-18T22:24:31.909Z,19.13
2023-04-18T22:29:32.487Z,19.73
2023-04-18T22:34:34.427Z,17.98
2023-04-18T22:39:35.203Z,18.27
2023-04-18T22:44:35.853Z,19.52
2023-04-18T22:49:38.140Z,19.00
2023-04-18T22:54:39.994Z,18.38
2023-04-18T22:59:40.745Z,17.70
2023-04-18T23:04:45.336Z,17.98
2023-04-18T23:09:46.266Z,17.60
2023-04-18T23:14:46.862Z,19.10
2023-04-18T23:19:48.745Z,18.10
2023-04-18T23:24:49.308Z,18.30
2023-04-18T23:29:50.477Z,18.73
2023-04-18T23:34:52.372Z,17.13
2023-04-18T23:39:52.942Z,16.42
2023-04-18T23:44:54.486Z,14.48
2023-04-18T23:49:56.573Z,12.13
2023-04-18T23:55:00.221Z,13.27
